sensor_id;sensor_type;location;lat;lon;timestamp;temperature;humidity
15296;DHT22;7749;49.964;7.890;2023-07-29T00:00:57;18.70;99.90
15296;DHT22;7749;49.964;7.890;2023-07-29T00:03:24;18.60;99.90
15296;DHT22;7749;49.964;7.890;2023-07-29T00:05:52;18.60;99.90
15296;DHT22;7749;49.964;7.890;2023-07-29T00:08:20;18.60;99.90
15296;DHT22;7749;49.964;7.890;2023-07-29T00:10:47;18.50;99.90
15296;DHT22;7749;49.964;7.890;2023-07-29T00:13:15;18.50;99.90
15296;DHT22;7749;49.964;7.890;2023-07-29T00:15:44;18.50;99.90
15296;DHT22;7749;49.964;7.890;2023-07-29T00:18:12;18.40;99.90
15296;DHT22;7749;49.964;7.890;2023-07-29T00:20:40;18.40;99.90
15296;DHT22;7749;49.964;7.890;2023-07-29T00:23:07;18.40;99.90
15296;DHT22;7749;49.964;7.890;2023-07-29T00:25:35;18.50;99.90
15296;DHT22;7749;49.964;7.890;2023-07-29T00:28:03;18.40;99.90
15296;DHT22;7749;49.964;7.890;2023-07-29T00:30:30;18.40;99.90
15296;DHT22;7749;49.964;7.890;2023-07-29T00:32:58;18.30;99.90
15296;DHT22;7749;49.964;7.890;2023-07-29T00:35:25;18.40;99.90
15296;DHT22;7749;49.964;7.890;2023-07-29T00:37:54;18.40;99.90
15296;DHT22;7749;49.964;7.890;2023-07-29T00:40:22;18.40;99.90
15296;DHT22;7749;49.964;7.890;2023-07-29T00:42:49;18.40;99.90
15296;DHT22;7749;49.964;7.890;2023-07-29T00:45:17;18.50;99.90
15296;DHT22;7749;49.964;7.890;2023-07-29T00:47:45;18.50;99.90
15296;DHT22;7749;49.964;7.890;2023-07-29T00:50:14;18.50;99.90
15296;DHT22;7749;49.964;7.890;2023-07-29T00:52:42;18.40;99.90
15296;DHT22;7749;49.964;7.890;2023-07-29T00:55:09;18.40;99.90
15296;DHT22;7749;49.964;7.890;2023-07-29T00:57:37;18.40;99.90
15296;DHT22;7749;49.964;7.890;2023-07-29T01:00:06;18.40;99.90
15296;DHT22;7749;49.964;7.890;2023-07-29T01:02:35;18.30;99.90
15296;DHT22;7749;49.964;7.890;2023-07-29T01:05:03;18.30;99.90
15296;DHT22;7749;49.964;7.890;2023-07-29T01:10:54;18.30;99.90
15296;DHT22;7749;49.964;7.890;2023-07-29T01:13:28;18.30;99.90
15296;DHT22;7749;49.964;7.890;2023-07-29T01:16:06;18.40;99.90
15296;DHT22;7749;49.964;7.890;2023-07-29T01:18:36;18.40;99.90
15296;DHT22;7749;49.964;7.890;2023-07-29T01:21:08;18.40;99.90
15296;DHT22;7749;49.964;7.890;2023-07-29T01:23:35;18.40;99.90
15296;DHT22;7749;49.964;7.890;2023-07-29T01:26:03;18.40;99.90
15296;DHT22;7749;49.964;7.890;2023-07-29T01:28:31;18.40;99.90
15296;DHT22;7749;49.964;7.890;2023-07-29T01:31:21;18.40;99.90
15296;DHT22;7749;49.964;7.890;2023-07-29T01:33:59;18.50;99.90
15296;DHT22;7749;49.964;7.890;2023-07-29T01:36:30;18.50;99.90
15296;DHT22;7749;49.964;7.890;2023-07-29T01:38:59;18.50;99.90
15296;DHT22;7749;49.964;7.890;2023-07-29T01:41:28;18.50;99.90
15296;DHT22;7749;49.964;7.890;2023-07-29T01:43:56;18.60;99.90
15296;DHT22;7749;49.964;7.890;2023-07-29T01:46:24;18.60;99.90
15296;DHT22;7749;49.964;7.890;2023-07-29T01:48:52;18.60;99.90
15296;DHT22;7749;49.964;7.890;2023-07-29T01:51:20;18.70;99.90
15296;DHT22;7749;49.964;7.890;2023-07-29T01:53:48;18.70;99.90
15296;DHT22;7749;49.964;7.890;2023-07-29T01:56:15;18.80;99.90
15296;DHT22;7749;49.964;7.890;2023-07-29T01:58:43;18.70;99.90
15296;DHT22;7749;49.964;7.890;2023-07-29T02:01:10;18.70;99.90
15296;DHT22;7749;49.964;7.890;2023-07-29T02:03:37;18.70;99.90
15296;DHT22;7749;49.964;7.890;2023-07-29T02:06:05;18.80;99.90
15296;DHT22;7749;49.964;7.890;2023-07-29T02:08:32;18.70;99.90
15296;DHT22;7749;49.964;7.890;2023-07-29T02:11:00;18.70;99.90
15296;DHT22;7749;49.964;7.890;2023-07-29T02:13:27;18.70;99.90
15296;DHT22;7749;49.964;7.890;2023-07-29T02:15:55;18.70;99.90
15296;DHT22;7749;49.964;7.890;2023-07-29T02:18:22;18.80;99.90
15296;DHT22;7749;49.964;7.890;2023-07-29T02:20:49;18.80;99.90
15296;DHT22;7749;49.964;7.890;2023-07-29T02:23:17;18.70;99.90
15296;DHT22;7749;49.964;7.890;2023-07-29T02:25:44;18.70;99.90
15296;DHT22;7749;49.964;7.890;2023-07-29T02:28:12;18.70;99.90
15296;DHT22;7749;49.964;7.890;2023-07-29T02:30:41;18.70;99.90
15296;DHT22;7749;49.964;7.890;2023-07-29T02:33:09;18.70;99.90
15296;DHT22;7749;49.964;7.890;2023-07-29T02:35:36;18.70;99.90
15296;DHT22;7749;49.964;7.890;2023-07-29T02:38:04;18.70;99.90
15296;DHT22;7749;49.964;7.890;2023-07-29T02:40:31;18.90;99.90
15296;DHT22;7749;49.964;7.890;2023-07-29T02:42:58;18.90;99.90
15296;DHT22;7749;49.964;7.890;2023-07-29T02:45:26;18.90;99.90
15296;DHT22;7749;49.964;7.890;2023-07-29T02:47:53;18.90;99.90
15296;DHT22;7749;49.964;7.890;2023-07-29T02:50:21;18.90;99.90
15296;DHT22;7749;49.964;7.890;2023-07-29T02:52:48;18.90;99.90
15296;DHT22;7749;49.964;7.890;2023-07-29T02:55:17;18.90;99.90
15296;DHT22;7749;49.964;7.890;2023-07-29T02:57:45;18.80;99.90
15296;DHT22;7749;49.964;7.890;2023-07-29T03:00:13;18.80;99.90
15296;DHT22;7749;49.964;7.890;2023-07-29T03:02:40;18.80;99.90
15296;DHT22;7749;49.964;7.890;2023-07-29T03:05:08;18.80;99.90
15296;DHT22;7749;49.964;7.890;2023-07-29T03:07:35;18.90;99.90
15296;DHT22;7749;49.964;7.890;2023-07-29T03:10:03;18.90;99.90
15296;DHT22;7749;49.964;7.890;2023-07-29T03:12:31;18.80;99.90
15296;DHT22;7749;49.964;7.890;2023-07-29T03:14:58;18.80;99.90
15296;DHT22;7749;49.964;7.890;2023-07-29T03:17:27;18.80;99.90
15296;DHT22;7749;49.964;7.890;2023-07-29T03:19:54;18.70;99.90
15296;DHT22;7749;49.964;7.890;2023-07-29T03:22:22;18.80;99.90
15296;DHT22;7749;49.964;7.890;2023-07-29T03:24:49;18.80;99.90
15296;DHT22;7749;49.964;7.890;2023-07-29T03:27:17;18.80;99.90
15296;DHT22;7749;49.964;7.890;2023-07-29T03:29:44;18.80;99.90
15296;DHT22;7749;49.964;7.890;2023-07-29T03:32:12;18.80;99.90
15296;DHT22;7749;49.964;7.890;2023-07-29T03:34:39;18.70;99.90
15296;DHT22;7749;49.964;7.890;2023-07-29T03:37:07;18.70;99.90
15296;DHT22;7749;49.964;7.890;2023-07-29T03:39:34;18.70;99.90
15296;DHT22;7749;49.964;7.890;2023-07-29T03:42:02;18.60;99.90
15296;DHT22;7749;49.964;7.890;2023-07-29T03:44:30;18.60;99.90
15296;DHT22;7749;49.964;7.890;2023-07-29T03:46:58;18.60;99.90
15296;DHT22;7749;49.964;7.890;2023-07-29T03:49:28;18.60;99.90
15296;DHT22;7749;49.964;7.890;2023-07-29T03:51:56;18.60;99.90
15296;DHT22;7749;49.964;7.890;2023-07-29T03:54:23;18.60;99.90
15296;DHT22;7749;49.964;7.890;2023-07-29T03:56:50;18.70;99.90
15296;DHT22;7749;49.964;7.890;2023-07-29T03:59:18;18.60;99.90
15296;DHT22;7749;49.964;7.890;2023-07-29T04:01:45;18.70;99.90
15296;DHT22;7749;49.964;7.890;2023-07-29T04:04:13;18.70;99.90
15296;DHT22;7749;49.964;7.890;2023-07-29T04:06:40;18.70;99.90
15296;DHT22;7749;49.964;7.890;2023-07-29T04:09:08;18.70;99.90
15296;DHT22;7749;49.964;7.890;2023-07-29T04:11:36;18.70;99.90
15296;DHT22;7749;49.964;7.890;2023-07-29T04:14:03;18.70;99.90
15296;DHT22;7749;49.964;7.890;2023-07-29T04:16:31;18.80;99.90
15296;DHT22;7749;49.964;7.890;2023-07-29T04:18:58;18.80;99.90
15296;DHT22;7749;49.964;7.890;2023-07-29T04:21:26;18.90;99.90
15296;DHT22;7749;49.964;7.890;2023-07-29T04:23:53;18.90;99.90
15296;DHT22;7749;49.964;7.890;2023-07-29T04:26:21;18.90;99.90
15296;DHT22;7749;49.964;7.890;2023-07-29T04:28:48;18.90;99.90
15296;DHT22;7749;49.964;7.890;2023-07-29T04:31:16;19.00;99.90
15296;DHT22;7749;49.964;7.890;2023-07-29T04:33:43;19.00;99.90
15296;DHT22;7749;49.964;7.890;2023-07-29T04:36:11;19.10;99.90
15296;DHT22;7749;49.964;7.890;2023-07-29T04:38:38;19.10;99.90
15296;DHT22;7749;49.964;7.890;2023-07-29T04:41:07;19.20;99.90
15296;DHT22;7749;49.964;7.890;2023-07-29T04:43:36;19.30;99.90
15296;DHT22;7749;49.964;7.890;2023-07-29T04:46:06;19.30;99.90
15296;DHT22;7749;49.964;7.890;2023-07-29T04:48:35;19.40;99.90
15296;DHT22;7749;49.964;7.890;2023-07-29T04:51:02;19.40;99.90
15296;DHT22;7749;49.964;7.890;2023-07-29T04:53:30;19.40;99.90
15296;DHT22;7749;49.964;7.890;2023-07-29T04:55:57;19.40;99.90
15296;DHT22;7749;49.964;7.890;2023-07-29T04:58:24;19.40;99.90
15296;DHT22;7749;49.964;7.890;2023-07-29T05:00:52;19.50;99.90
15296;DHT22;7749;49.964;7.890;2023-07-29T05:03:19;19.50;99.90
15296;DHT22;7749;49.964;7.890;2023-07-29T05:05:47;19.50;99.90
15296;DHT22;7749;49.964;7.890;2023-07-29T05:08:14;19.50;99.90
15296;DHT22;7749;49.964;7.890;2023-07-29T05:10:42;19.50;99.90
15296;DHT22;7749;49.964;7.890;2023-07-29T05:13:10;19.60;99.90
15296;DHT22;7749;49.964;7.890;2023-07-29T05:15:38;19.60;99.90
15296;DHT22;7749;49.964;7.890;2023-07-29T05:18:05;19.60;99.90
15296;DHT22;7749;49.964;7.890;2023-07-29T05:20:32;19.60;99.90
15296;DHT22;7749;49.964;7.890;2023-07-29T05:23:00;19.60;99.90
15296;DHT22;7749;49.964;7.890;2023-07-29T05:25:28;19.50;99.90
15296;DHT22;7749;49.964;7.890;2023-07-29T05:27:56;19.50;99.90
15296;DHT22;7749;49.964;7.890;2023-07-29T05:30:24;19.40;99.90
15296;DHT22;7749;49.964;7.890;2023-07-29T05:32:54;19.40;99.90
15296;DHT22;7749;49.964;7.890;2023-07-29T05:35:21;19.30;99.90
15296;DHT22;7749;49.964;7.890;2023-07-29T05:37:49;19.20;99.90
15296;DHT22;7749;49.964;7.890;2023-07-29T05:40:16;19.20;99.90
15296;DHT22;7749;49.964;7.890;2023-07-29T05:42:44;19.10;99.90
15296;DHT22;7749;49.964;7.890;2023-07-29T05:45:12;19.10;99.90
15296;DHT22;7749;49.964;7.890;2023-07-29T05:47:39;19.10;99.90
15296;DHT22;7749;49.964;7.890;2023-07-29T05:50:08;19.10;99.90
15296;DHT22;7749;49.964;7.890;2023-07-29T05:52:36;19.10;99.90
15296;DHT22;7749;49.964;7.890;2023-07-29T05:55:05;19.10;99.90
15296;DHT22;7749;49.964;7.890;2023-07-29T05:57:32;19.20;99.90
15296;DHT22;7749;49.964;7.890;2023-07-29T06:00:00;19.20;99.90
15296;DHT22;7749;49.964;7.890;2023-07-29T06:02:27;19.20;99.90
15296;DHT22;7749;49.964;7.890;2023-07-29T06:04:55;19.20;99.90
15296;DHT22;7749;49.964;7.890;2023-07-29T06:07:24;19.20;99.90
15296;DHT22;7749;49.964;7.890;2023-07-29T06:09:55;19.20;99.90
15296;DHT22;7749;49.964;7.890;2023-07-29T06:12:22;19.20;99.90
15296;DHT22;7749;49.964;7.890;2023-07-29T06:14:50;19.20;99.90
15296;DHT22;7749;49.964;7.890;2023-07-29T06:17:17;19.20;99.90
15296;DHT22;7749;49.964;7.890;2023-07-29T06:19:45;19.10;99.90
15296;DHT22;7749;49.964;7.890;2023-07-29T06:22:12;19.10;99.90
15296;DHT22;7749;49.964;7.890;2023-07-29T06:24:39;19.10;99.90
15296;DHT22;7749;49.964;7.890;2023-07-29T06:27:07;19.10;99.90
15296;DHT22;7749;49.964;7.890;2023-07-29T06:29:34;19.10;99.90
15296;DHT22;7749;49.964;7.890;2023-07-29T06:32:02;19.00;99.90
15296;DHT22;7749;49.964;7.890;2023-07-29T06:34:29;19.10;99.90
15296;DHT22;7749;49.964;7.890;2023-07-29T06:36:57;19.00;99.90
15296;DHT22;7749;49.964;7.890;2023-07-29T06:39:24;19.00;99.90
15296;DHT22;7749;49.964;7.890;2023-07-29T06:41:52;19.00;99.90
15296;DHT22;7749;49.964;7.890;2023-07-29T06:44:19;19.00;99.90
15296;DHT22;7749;49.964;7.890;2023-07-29T06:46:46;19.10;99.90
15296;DHT22;7749;49.964;7.890;2023-07-29T06:49:14;19.10;99.90
15296;DHT22;7749;49.964;7.890;2023-07-29T06:51:41;19.20;99.90
15296;DHT22;7749;49.964;7.890;2023-07-29T06:54:09;19.30;99.90
15296;DHT22;7749;49.964;7.890;2023-07-29T06:56:36;19.40;99.90
15296;DHT22;7749;49.964;7.890;2023-07-29T06:59:04;19.50;99.90
15296;DHT22;7749;49.964;7.890;2023-07-29T07:01:32;19.60;99.90
15296;DHT22;7749;49.964;7.890;2023-07-29T07:03:59;19.50;99.90
15296;DHT22;7749;49.964;7.890;2023-07-29T07:06:27;19.40;99.90
15296;DHT22;7749;49.964;7.890;2023-07-29T07:08:55;19.40;99.90
15296;DHT22;7749;49.964;7.890;2023-07-29T07:11:23;19.50;99.90
15296;DHT22;7749;49.964;7.890;2023-07-29T07:13:51;19.50;99.90
15296;DHT22;7749;49.964;7.890;2023-07-29T07:16:18;19.70;99.90
15296;DHT22;7749;49.964;7.890;2023-07-29T07:18:46;19.80;99.90
15296;DHT22;7749;49.964;7.890;2023-07-29T07:21:13;20.00;99.90
15296;DHT22;7749;49.964;7.890;2023-07-29T07:23:41;20.20;99.90
15296;DHT22;7749;49.964;7.890;2023-07-29T07:26:08;20.30;99.90
15296;DHT22;7749;49.964;7.890;2023-07-29T07:28:36;20.40;99.90
15296;DHT22;7749;49.964;7.890;2023-07-29T07:31:03;20.50;99.90
15296;DHT22;7749;49.964;7.890;2023-07-29T07:33:31;20.70;99.90
15296;DHT22;7749;49.964;7.890;2023-07-29T07:35:58;20.90;99.90
15296;DHT22;7749;49.964;7.890;2023-07-29T07:38:26;21.30;99.90
15296;DHT22;7749;49.964;7.890;2023-07-29T07:40:54;21.80;99.90
15296;DHT22;7749;49.964;7.890;2023-07-29T07:43:23;22.20;99.90
15296;DHT22;7749;49.964;7.890;2023-07-29T07:45:56;22.50;99.90
15296;DHT22;7749;49.964;7.890;2023-07-29T07:48:25;22.60;99.90
15296;DHT22;7749;49.964;7.890;2023-07-29T07:50:52;22.70;99.90
15296;DHT22;7749;49.964;7.890;2023-07-29T07:53:20;22.70;99.90
15296;DHT22;7749;49.964;7.890;2023-07-29T07:55:47;22.60;99.90
15296;DHT22;7749;49.964;7.890;2023-07-29T07:58:15;22.60;99.90
15296;DHT22;7749;49.964;7.890;2023-07-29T08:00:42;22.60;99.90
15296;DHT22;7749;49.964;7.890;2023-07-29T08:03:10;22.70;99.90
15296;DHT22;7749;49.964;7.890;2023-07-29T08:05:38;22.90;99.90
15296;DHT22;7749;49.964;7.890;2023-07-29T08:08:06;22.90;99.90
15296;DHT22;7749;49.964;7.890;2023-07-29T08:10:33;23.00;99.90
15296;DHT22;7749;49.964;7.890;2023-07-29T08:13:01;23.20;99.90
15296;DHT22;7749;49.964;7.890;2023-07-29T08:15:29;23.20;99.90
15296;DHT22;7749;49.964;7.890;2023-07-29T08:17:57;23.30;99.90
15296;DHT22;7749;49.964;7.890;2023-07-29T08:20:24;23.40;99.90
15296;DHT22;7749;49.964;7.890;2023-07-29T08:22:51;23.60;99.90
15296;DHT22;7749;49.964;7.890;2023-07-29T08:25:19;23.40;99.90
15296;DHT22;7749;49.964;7.890;2023-07-29T08:27:46;23.50;99.90
15296;DHT22;7749;49.964;7.890;2023-07-29T08:30:14;23.50;99.90
15296;DHT22;7749;49.964;7.890;2023-07-29T08:32:43;23.50;99.90
15296;DHT22;7749;49.964;7.890;2023-07-29T08:35:12;23.60;99.90
15296;DHT22;7749;49.964;7.890;2023-07-29T08:37:39;23.90;99.90
15296;DHT22;7749;49.964;7.890;2023-07-29T08:40:07;24.10;99.90
15296;DHT22;7749;49.964;7.890;2023-07-29T08:42:38;24.20;99.90
15296;DHT22;7749;49.964;7.890;2023-07-29T08:45:08;24.30;99.90
15296;DHT22;7749;49.964;7.890;2023-07-29T08:47:36;24.50;99.90
15296;DHT22;7749;49.964;7.890;2023-07-29T08:50:04;24.50;99.90
15296;DHT22;7749;49.964;7.890;2023-07-29T08:52:32;24.50;99.90
15296;DHT22;7749;49.964;7.890;2023-07-29T08:55:00;24.50;99.90
15296;DHT22;7749;49.964;7.890;2023-07-29T08:57:28;24.50;99.90
15296;DHT22;7749;49.964;7.890;2023-07-29T08:59:56;24.50;99.90
15296;DHT22;7749;49.964;7.890;2023-07-29T09:02:24;24.60;99.90
15296;DHT22;7749;49.964;7.890;2023-07-29T09:04:51;24.70;99.90
15296;DHT22;7749;49.964;7.890;2023-07-29T09:07:19;24.90;99.90
15296;DHT22;7749;49.964;7.890;2023-07-29T09:09:47;25.00;99.90
15296;DHT22;7749;49.964;7.890;2023-07-29T09:12:14;25.10;99.90
15296;DHT22;7749;49.964;7.890;2023-07-29T09:14:42;24.90;99.90
15296;DHT22;7749;49.964;7.890;2023-07-29T09:17:09;24.80;99.90
15296;DHT22;7749;49.964;7.890;2023-07-29T09:19:37;24.80;99.90
15296;DHT22;7749;49.964;7.890;2023-07-29T09:22:05;24.90;99.90
15296;DHT22;7749;49.964;7.890;2023-07-29T09:24:45;25.20;99.90
15296;DHT22;7749;49.964;7.890;2023-07-29T09:27:28;25.40;99.90
15296;DHT22;7749;49.964;7.890;2023-07-29T09:29:58;25.60;99.90
15296;DHT22;7749;49.964;7.890;2023-07-29T09:32:26;25.90;99.90
15296;DHT22;7749;49.964;7.890;2023-07-29T09:34:54;26.00;99.90
15296;DHT22;7749;49.964;7.890;2023-07-29T09:37:22;26.00;99.90
15296;DHT22;7749;49.964;7.890;2023-07-29T09:39:50;26.00;1.00
15296;DHT22;7749;49.964;7.890;2023-07-29T09:42:19;25.90;1.00
15296;DHT22;7749;49.964;7.890;2023-07-29T09:44:49;25.60;1.00
15296;DHT22;7749;49.964;7.890;2023-07-29T09:47:24;25.30;1.70
15296;DHT22;7749;49.964;7.890;2023-07-29T09:49:52;25.30;30.00
15296;DHT22;7749;49.964;7.890;2023-07-29T09:52:22;25.30;47.50
15296;DHT22;7749;49.964;7.890;2023-07-29T09:54:50;25.10;61.00
15296;DHT22;7749;49.964;7.890;2023-07-29T09:57:18;25.20;28.20
15296;DHT22;7749;49.964;7.890;2023-07-29T09:59:56;25.20;3.10
15296;DHT22;7749;49.964;7.890;2023-07-29T10:02:24;25.10;8.20
15296;DHT22;7749;49.964;7.890;2023-07-29T10:04:53;25.10;22.70
15296;DHT22;7749;49.964;7.890;2023-07-29T10:07:21;24.40;54.50
15296;DHT22;7749;49.964;7.890;2023-07-29T10:09:51;24.30;91.80
15296;DHT22;7749;49.964;7.890;2023-07-29T10:12:20;24.60;63.70
15296;DHT22;7749;49.964;7.890;2023-07-29T10:14:49;25.10;25.50
15296;DHT22;7749;49.964;7.890;2023-07-29T10:17:20;25.40;18.30
15296;DHT22;7749;49.964;7.890;2023-07-29T10:19:48;25.70;1.00
15296;DHT22;7749;49.964;7.890;2023-07-29T10:22:20;26.20;1.00
15296;DHT22;7749;49.964;7.890;2023-07-29T10:24:48;25.90;1.00
15296;DHT22;7749;49.964;7.890;2023-07-29T10:27:18;26.10;58.60
15296;DHT22;7749;49.964;7.890;2023-07-29T10:29:46;26.10;99.30
15296;DHT22;7749;49.964;7.890;2023-07-29T10:32:15;26.00;1.00
15296;DHT22;7749;49.964;7.890;2023-07-29T10:34:43;25.20;1.00
15296;DHT22;7749;49.964;7.890;2023-07-29T10:37:11;24.90;1.00
15296;DHT22;7749;49.964;7.890;2023-07-29T10:39:39;24.60;1.00
15296;DHT22;7749;49.964;7.890;2023-07-29T10:42:09;24.90;99.90
15296;DHT22;7749;49.964;7.890;2023-07-29T10:47:16;25.40;99.90
15296;DHT22;7749;49.964;7.890;2023-07-29T10:49:45;25.50;1.00
15296;DHT22;7749;49.964;7.890;2023-07-29T10:52:14;25.10;1.00
15296;DHT22;7749;49.964;7.890;2023-07-29T10:54:47;25.10;1.00
15296;DHT22;7749;49.964;7.890;2023-07-29T10:57:36;25.30;92.30
15296;DHT22;7749;49.964;7.890;2023-07-29T11:00:05;25.00;25.80
15296;DHT22;7749;49.964;7.890;2023-07-29T11:02:35;24.80;59.10
15296;DHT22;7749;49.964;7.890;2023-07-29T11:05:18;24.80;97.70
15296;DHT22;7749;49.964;7.890;2023-07-29T11:07:49;25.20;99.90
15296;DHT22;7749;49.964;7.890;2023-07-29T11:10:17;25.50;99.90
15296;DHT22;7749;49.964;7.890;2023-07-29T11:12:49;25.60;99.90
15296;DHT22;7749;49.964;7.890;2023-07-29T11:15:25;25.60;99.90
15296;DHT22;7749;49.964;7.890;2023-07-29T11:17:57;25.40;99.90
15296;DHT22;7749;49.964;7.890;2023-07-29T11:20:30;25.70;25.00
15296;DHT22;7749;49.964;7.890;2023-07-29T11:23:03;25.60;99.90
15296;DHT22;7749;49.964;7.890;2023-07-29T11:25:32;26.00;99.90
15296;DHT22;7749;49.964;7.890;2023-07-29T11:28:03;27.00;99.90
15296;DHT22;7749;49.964;7.890;2023-07-29T11:30:33;29.10;99.90
15296;DHT22;7749;49.964;7.890;2023-07-29T11:33:03;30.20;99.90
15296;DHT22;7749;49.964;7.890;2023-07-29T11:35:32;31.60;99.00
15296;DHT22;7749;49.964;7.890;2023-07-29T11:37:59;32.20;90.60
15296;DHT22;7749;49.964;7.890;2023-07-29T11:40:27;30.80;95.60
15296;DHT22;7749;49.964;7.890;2023-07-29T11:42:54;31.20;93.60
15296;DHT22;7749;49.964;7.890;2023-07-29T11:45:23;32.50;88.90
15296;DHT22;7749;49.964;7.890;2023-07-29T11:48:02;33.50;81.30
15296;DHT22;7749;49.964;7.890;2023-07-29T11:50:30;32.60;73.90
15296;DHT22;7749;49.964;7.890;2023-07-29T11:52:58;31.50;83.00
15296;DHT22;7749;49.964;7.890;2023-07-29T11:55:26;32.00;73.90
15296;DHT22;7749;49.964;7.890;2023-07-29T11:57:53;32.70;68.70
15296;DHT22;7749;49.964;7.890;2023-07-29T12:00:21;34.50;61.40
15296;DHT22;7749;49.964;7.890;2023-07-29T12:02:49;35.20;55.00
15296;DHT22;7749;49.964;7.890;2023-07-29T12:05:18;33.80;56.60
15296;DHT22;7749;49.964;7.890;2023-07-29T12:07:46;30.40;65.40
15296;DHT22;7749;49.964;7.890;2023-07-29T12:10:14;29.60;1.00
15296;DHT22;7749;49.964;7.890;2023-07-29T12:12:45;31.10;70.60
15296;DHT22;7749;49.964;7.890;2023-07-29T12:15:13;31.20;67.00
15296;DHT22;7749;49.964;7.890;2023-07-29T12:17:52;32.30;64.10
15296;DHT22;7749;49.964;7.890;2023-07-29T12:20:20;33.20;59.70
15296;DHT22;7749;49.964;7.890;2023-07-29T12:22:59;33.40;57.30
15296;DHT22;7749;49.964;7.890;2023-07-29T12:25:29;32.10;59.20
15296;DHT22;7749;49.964;7.890;2023-07-29T12:28:01;29.60;1.00
15296;DHT22;7749;49.964;7.890;2023-07-29T12:30:29;30.70;71.30
15296;DHT22;7749;49.964;7.890;2023-07-29T12:32:56;31.60;63.20
15296;DHT22;7749;49.964;7.890;2023-07-29T12:35:25;33.00;59.60
15296;DHT22;7749;49.964;7.890;2023-07-29T12:38:00;34.20;53.00
15296;DHT22;7749;49.964;7.890;2023-07-29T12:40:28;35.00;49.90
15296;DHT22;7749;49.964;7.890;2023-07-29T12:42:56;34.80;48.00
15296;DHT22;7749;49.964;7.890;2023-07-29T12:45:24;34.80;48.10
15296;DHT22;7749;49.964;7.890;2023-07-29T12:47:55;35.00;47.30
15296;DHT22;7749;49.964;7.890;2023-07-29T12:50:23;30.50;53.40
15296;DHT22;7749;49.964;7.890;2023-07-29T12:52:50;28.40;99.90
15296;DHT22;7749;49.964;7.890;2023-07-29T12:55:18;27.50;47.80
15296;DHT22;7749;49.964;7.890;2023-07-29T12:57:51;27.50;1.00
15296;DHT22;7749;49.964;7.890;2023-07-29T13:00:19;27.80;99.90
15296;DHT22;7749;49.964;7.890;2023-07-29T13:02:46;28.70;1.00
15296;DHT22;7749;49.964;7.890;2023-07-29T13:05:14;29.20;99.90
15296;DHT22;7749;49.964;7.890;2023-07-29T13:07:42;29.90;1.00
15296;DHT22;7749;49.964;7.890;2023-07-29T13:10:10;29.80;99.90
15296;DHT22;7749;49.964;7.890;2023-07-29T13:12:38;31.30;76.70
15296;DHT22;7749;49.964;7.890;2023-07-29T13:15:06;32.40;65.00
15296;DHT22;7749;49.964;7.890;2023-07-29T13:17:34;32.40;66.20
15296;DHT22;7749;49.964;7.890;2023-07-29T13:20:02;33.20;58.90
15296;DHT22;7749;49.964;7.890;2023-07-29T13:22:56;34.60;57.70
15296;DHT22;7749;49.964;7.890;2023-07-29T13:25:23;36.10;48.50
15296;DHT22;7749;49.964;7.890;2023-07-29T13:27:51;36.80;46.40
15296;DHT22;7749;49.964;7.890;2023-07-29T13:30:19;37.50;44.30
15296;DHT22;7749;49.964;7.890;2023-07-29T13:32:47;37.10;43.90
15296;DHT22;7749;49.964;7.890;2023-07-29T13:35:14;36.80;43.60
15296;DHT22;7749;49.964;7.890;2023-07-29T13:37:42;36.10;44.00
15296;DHT22;7749;49.964;7.890;2023-07-29T13:40:09;34.80;46.60
15296;DHT22;7749;49.964;7.890;2023-07-29T13:42:37;33.90;46.60
15296;DHT22;7749;49.964;7.890;2023-07-29T13:45:05;35.20;46.70
15296;DHT22;7749;49.964;7.890;2023-07-29T13:47:33;34.60;44.30
15296;DHT22;7749;49.964;7.890;2023-07-29T13:50:01;32.60;99.90
15296;DHT22;7749;49.964;7.890;2023-07-29T13:52:32;31.10;99.90
15296;DHT22;7749;49.964;7.890;2023-07-29T13:55:00;28.80;1.00
15296;DHT22;7749;49.964;7.890;2023-07-29T13:57:37;28.50;99.90
15296;DHT22;7749;49.964;7.890;2023-07-29T14:00:06;28.80;99.90
15296;DHT22;7749;49.964;7.890;2023-07-29T14:02:35;29.10;99.90
15296;DHT22;7749;49.964;7.890;2023-07-29T14:05:03;28.60;11.90
15296;DHT22;7749;49.964;7.890;2023-07-29T14:07:31;30.10;1.00
15296;DHT22;7749;49.964;7.890;2023-07-29T14:09:58;32.80;1.00
15296;DHT22;7749;49.964;7.890;2023-07-29T14:12:28;34.80;99.90
15296;DHT22;7749;49.964;7.890;2023-07-29T14:14:55;34.80;99.90
15296;DHT22;7749;49.964;7.890;2023-07-29T14:17:23;34.50;99.90
15296;DHT22;7749;49.964;7.890;2023-07-29T14:19:50;33.10;99.90
15296;DHT22;7749;49.964;7.890;2023-07-29T14:22:18;33.50;99.90
15296;DHT22;7749;49.964;7.890;2023-07-29T14:24:45;32.80;99.90
15296;DHT22;7749;49.964;7.890;2023-07-29T14:27:12;31.90;99.90
15296;DHT22;7749;49.964;7.890;2023-07-29T14:29:41;33.00;99.90
15296;DHT22;7749;49.964;7.890;2023-07-29T14:32:08;33.20;99.90
15296;DHT22;7749;49.964;7.890;2023-07-29T14:34:36;33.90;99.90
15296;DHT22;7749;49.964;7.890;2023-07-29T14:37:04;34.30;99.90
15296;DHT22;7749;49.964;7.890;2023-07-29T14:39:32;34.20;99.90
15296;DHT22;7749;49.964;7.890;2023-07-29T14:42:00;35.00;99.90
15296;DHT22;7749;49.964;7.890;2023-07-29T14:44:27;34.70;99.90
15296;DHT22;7749;49.964;7.890;2023-07-29T14:46:55;34.70;99.90
15296;DHT22;7749;49.964;7.890;2023-07-29T14:49:22;34.50;99.90
15296;DHT22;7749;49.964;7.890;2023-07-29T14:51:49;34.00;99.90
15296;DHT22;7749;49.964;7.890;2023-07-29T14:54:17;32.10;99.90
15296;DHT22;7749;49.964;7.890;2023-07-29T14:56:44;31.90;99.90
15296;DHT22;7749;49.964;7.890;2023-07-29T14:59:12;33.40;99.90
15296;DHT22;7749;49.964;7.890;2023-07-29T15:01:39;33.60;99.90
15296;DHT22;7749;49.964;7.890;2023-07-29T15:04:07;32.30;99.90
15296;DHT22;7749;49.964;7.890;2023-07-29T15:06:34;32.00;99.90
15296;DHT22;7749;49.964;7.890;2023-07-29T15:09:03;32.40;99.90
15296;DHT22;7749;49.964;7.890;2023-07-29T15:11:30;30.80;99.90
15296;DHT22;7749;49.964;7.890;2023-07-29T15:14:00;30.50;99.90
15296;DHT22;7749;49.964;7.890;2023-07-29T15:16:27;30.60;99.90
15296;DHT22;7749;49.964;7.890;2023-07-29T15:18:55;30.90;99.90
15296;DHT22;7749;49.964;7.890;2023-07-29T15:21:22;30.90;99.90
15296;DHT22;7749;49.964;7.890;2023-07-29T15:23:50;29.20;1.00
15296;DHT22;7749;49.964;7.890;2023-07-29T15:26:17;29.00;1.00
15296;DHT22;7749;49.964;7.890;2023-07-29T15:28:45;30.40;1.00
15296;DHT22;7749;49.964;7.890;2023-07-29T15:31:13;30.80;1.00
15296;DHT22;7749;49.964;7.890;2023-07-29T15:33:41;31.80;1.00
15296;DHT22;7749;49.964;7.890;2023-07-29T15:36:08;32.40;99.90
15296;DHT22;7749;49.964;7.890;2023-07-29T15:38:36;31.80;99.90
15296;DHT22;7749;49.964;7.890;2023-07-29T15:41:03;31.30;99.90
15296;DHT22;7749;49.964;7.890;2023-07-29T15:43:31;29.90;1.00
15296;DHT22;7749;49.964;7.890;2023-07-29T15:45:59;30.10;1.00
15296;DHT22;7749;49.964;7.890;2023-07-29T15:48:26;31.60;1.00
15296;DHT22;7749;49.964;7.890;2023-07-29T15:50:54;32.30;99.90
15296;DHT22;7749;49.964;7.890;2023-07-29T15:53:22;34.20;99.90
15296;DHT22;7749;49.964;7.890;2023-07-29T15:55:50;34.70;99.90
15296;DHT22;7749;49.964;7.890;2023-07-29T15:58:17;34.10;99.90
15296;DHT22;7749;49.964;7.890;2023-07-29T16:00:45;35.00;99.90